Rancho Santa Margarita, CA

5:52 PM PDT on September 30, 2014 (GMT -0700)
John Wayne-Orange County | Change Station
CLOSE
Current Station
Airport
Location: Santa Ana,
Elevation: 17 m
Nearby Weather Stations
Active Advisory: Heat Advisory

Elev 17 m 33.68 °N, 117.87 °W | Updated 59 minutes ago

Clear
Clear
27 °C
Feels Like 28 °C
N
17
Wind Variable Wind from SW

Today
High -- | Low -- °C
--% Chance of Precip.
Yesterday
High -- | Low -- °C
Precip. -- mm
6:44 AM 6:36 PM
Waxing Crescent, 41% visible
Pressure 1008 hPa
Visibility 16.1 kilometers
Clouds Clear
Heat Index 28 °C
Dew Point 17 °C
Humidity 52%
Rainfall 0.0 mm
Snow Depth 0 in , 1 in , 0 in
UV 1 out of 12
Pollen 5.30 out of 12
Ozone Good
Flu Activity Not available.
METAR KSNA 302353Z 22009KT 10SM CLR 27/17 A2976 RMK AO2 SLP075 T02720167 10300 20261 56012 $

More Conditions Fewer Conditions

Pressure 1008 hPa
Visibility 16.1 kilometers
Clouds Clear
Heat Index 28 °C
Dew Point 17 °C
Humidity 52%
Rainfall 0.0 mm
Snow Depth 0 in , 1 in , 0 in
UV 1 out of 12
Pollen 5.30 out of 12
Ozone Good
Flu Activity Not available.
METAR KSNA 302353Z 22009KT 10SM CLR 27/17 A2976 RMK AO2 SLP075 T02720167 10300 20261 56012 $

More Conditions Fewer Conditions

10-Day Weather Forecast

Almanac

Astronomy

Sep. 30, 2014 Rise Set
Actual Time 6:44 AM PDT 6:36 PM PDT
Civil Twilight 6:19 AM PDT 7:00 PM PDT
Nautical Twilight 5:50 AM PDT 7:29 PM PDT
Astronomical Twilight 5:21 AM PDT 7:58 PM PDT
Moon 12:43 PM PDT (9/30) 11:23 PM PDT (9/30)
Length of Visible Light 12h 41m
Length of Day
11h 51m
Tomorrow will be 2m 4s shorter.
Waxing Crescent, 41% of the Moon is Illuminated
Today
Waxing Crescent
Oct 1
First Quarter
Oct 8
Full
Oct 15
Last Quarter
Oct 23
New

Today's Extremes

State Highs State Lows

Community

WunderPhotos

Upload Photos

1,757,801 photos uploaded!

Nearby

Air Quality

  Air Quality AQ Index Pollutant
Yesterday Good
PM10
Yesterday Good
OZONE
Current Good
OZONE
Wednesday Good
PM10
Wednesday Moderate
OZONE
Wednesday Good
CO
Wednesday Good
NO2

Snow Depth

Station Depth Elevation
Adin Mountain 0 in 6200 ft
CSS Lab 1 in 6900 ft
Tahoe City Cross 0 in 6750 ft
Summit Meadow 0 in 9122 ft
Leavitt Lake 0 in 9400 ft

Earthquake Activity

City Distance Mag. Time & Date
Avalon, California 93 kilometers 2.6 1:28 PM PDT
2014-09-30
Minimum magnitude displayed is 2.5.

Coastal Water Temperatures

Place Temperature
Santa Monica Pier 22.2 °C
Los Angeles, CA 20.0 °C
La Jolla, CA 21.7 °C

Nearby Weather Stations